createdAt,value
2019-05-07T00:02:27.833Z,3.15
2019-05-07T00:07:25.202Z,2.77
2019-05-07T00:09:54.295Z,3.00
2019-05-07T00:12:23.224Z,2.80
2019-05-07T00:15:00.922Z,3.25
2019-05-07T00:17:23.001Z,3.10
2019-05-07T00:19:52.592Z,3.80
2019-05-07T00:22:22.705Z,4.15
2019-05-07T00:24:55.627Z,4.28
2019-05-07T00:27:24.717Z,4.90
2019-05-07T00:29:53.812Z,4.50
2019-05-07T00:32:22.908Z,4.75
2019-05-07T00:35:02.550Z,4.62
2019-05-07T00:37:36.047Z,4.17
2019-05-07T00:40:13.011Z,4.65
2019-05-07T00:42:49.288Z,4.22
2019-05-07T00:45:23.854Z,4.30
2019-05-07T00:47:53.112Z,3.77
2019-05-07T00:50:25.696Z,3.58
2019-05-07T00:52:57.717Z,3.17
2019-05-07T00:55:29.729Z,3.90
2019-05-07T00:58:02.864Z,3.52
2019-05-07T01:00:35.394Z,3.58
2019-05-07T01:03:07.957Z,3.70
2019-05-07T01:05:37.051Z,3.77
2019-05-07T01:08:06.146Z,3.52
2019-05-07T01:10:35.240Z,3.60
2019-05-07T01:13:04.337Z,4.03
2019-05-07T01:15:34.596Z,4.33
2019-05-07T01:18:07.539Z,4.22
2019-05-07T01:20:36.943Z,4.50
2019-05-07T01:23:06.038Z,5.10
2019-05-07T01:25:35.134Z,8.15
2019-05-07T01:28:04.227Z,8.45
2019-05-07T01:30:35.870Z,18.25
2019-05-07T01:33:06.426Z,9.33
2019-05-07T01:35:45.948Z,6.85
2019-05-07T01:38:16.534Z,6.67
2019-05-07T01:40:45.572Z,6.08
2019-05-07T01:43:14.692Z,5.78
2019-05-07T01:45:49.082Z,5.40
2019-05-07T01:48:15.622Z,5.15
2019-05-07T01:50:44.718Z,5.05
2019-05-07T01:53:13.914Z,5.05
2019-05-07T01:55:43.009Z,5.03
2019-05-07T01:58:12.591Z,6.10
2019-05-07T02:00:42.486Z,6.83
2019-05-07T02:03:23.117Z,16.00
2019-05-07T02:06:13.191Z,10.50
2019-05-07T02:08:44.061Z,9.35
2019-05-07T02:11:14.569Z,14.93
2019-05-07T02:13:43.640Z,11.60
2019-05-07T02:16:12.735Z,9.83
2019-05-07T02:18:42.472Z,12.80
2019-05-07T02:21:12.850Z,7.53
2019-05-07T02:23:42.602Z,7.53
2019-05-07T02:26:13.395Z,6.62
2019-05-07T02:28:43.553Z,16.30
2019-05-07T02:31:15.044Z,6.85
2019-05-07T02:33:43.847Z,5.10
2019-05-07T02:36:23.409Z,5.22
2019-05-07T02:39:12.891Z,4.65
2019-05-07T02:41:44.063Z,5.42
2019-05-07T02:44:13.925Z,5.03
2019-05-07T02:46:53.997Z,4.72
2019-05-07T02:49:34.762Z,10.68
2019-05-07T02:52:08.517Z,5.80
2019-05-07T02:55:03.981Z,12.15
2019-05-07T02:57:33.936Z,8.98
2019-05-07T03:00:04.583Z,7.53
2019-05-07T03:02:33.630Z,13.83
2019-05-07T03:05:05.324Z,5.47
2019-05-07T03:07:33.854Z,5.10
2019-05-07T03:10:03.746Z,12.88
2019-05-07T03:12:33.694Z,4.90
2019-05-07T03:15:04.546Z,7.58
2019-05-07T03:17:34.446Z,12.07
2019-05-07T03:20:09.138Z,5.55
2019-05-07T03:22:38.362Z,9.73
2019-05-07T03:25:08.986Z,4.45
2019-05-07T03:27:39.210Z,5.25
2019-05-07T03:30:10.006Z,4.72
2019-05-07T03:32:47.678Z,4.28
2019-05-07T03:35:28.342Z,5.22
2019-05-07T03:37:58.170Z,4.20
2019-05-07T03:40:27.827Z,4.60
2019-05-07T03:43:05.800Z,4.87
2019-05-07T03:45:36.876Z,4.35
2019-05-07T03:48:13.310Z,4.92
2019-05-07T03:50:43.432Z,4.05
2019-05-07T03:53:14.185Z,4.58
2019-05-07T03:55:44.948Z,5.40
2019-05-07T03:58:14.830Z,6.17
2019-05-07T04:00:46.701Z,6.75
2019-05-07T04:03:19.307Z,14.13
2019-05-07T04:05:46.541Z,40.05
2019-05-07T04:08:15.837Z,6.92
2019-05-07T04:10:50.002Z,5.90
2019-05-07T04:13:23.953Z,4.85
2019-05-07T04:15:53.558Z,4.58
2019-05-07T04:18:23.746Z,4.30
2019-05-07T04:20:54.004Z,3.65
2019-05-07T04:23:23.633Z,4.42
2019-05-07T04:25:57.786Z,3.47
2019-05-07T04:28:28.271Z,4.30
2019-05-07T04:30:58.261Z,4.92
2019-05-07T04:33:28.788Z,4.40
2019-05-07T04:36:04.745Z,3.90
2019-05-07T04:38:33.842Z,4.25
2019-05-07T04:41:03.799Z,3.55
2019-05-07T04:43:33.787Z,3.42
2019-05-07T04:46:03.452Z,3.30
2019-05-07T04:48:34.028Z,4.20
2019-05-07T04:51:05.058Z,4.83
2019-05-07T04:53:34.146Z,3.70
2019-05-07T04:56:03.533Z,3.30
2019-05-07T04:58:33.966Z,3.47
2019-05-07T05:01:04.296Z,3.90
2019-05-07T05:03:34.696Z,3.47
2019-05-07T05:06:04.225Z,3.27
2019-05-07T05:08:33.334Z,3.30
2019-05-07T05:11:03.291Z,3.35
2019-05-07T05:13:33.316Z,3.90
2019-05-07T05:16:04.082Z,2.83
2019-05-07T05:18:34.227Z,3.00
2019-05-07T05:21:12.090Z,2.80
2019-05-07T05:23:49.525Z,2.50
2019-05-07T05:26:18.690Z,2.75
2019-05-07T05:28:47.887Z,3.00
2019-05-07T05:31:17.944Z,3.33
2019-05-07T05:33:49.681Z,3.10
2019-05-07T05:36:23.873Z,3.17
2019-05-07T05:38:53.048Z,3.08
2019-05-07T05:41:26.028Z,2.98
2019-05-07T05:44:02.264Z,2.65
2019-05-07T05:46:32.461Z,3.50
2019-05-07T05:49:02.610Z,3.00
2019-05-07T05:51:34.623Z,2.77
2019-05-07T05:54:22.362Z,3.20
2019-05-07T05:57:09.064Z,3.22
2019-05-07T05:59:49.146Z,2.72
2019-05-07T06:02:27.942Z,5.60
2019-05-07T06:05:12.599Z,5.55
2019-05-07T06:07:48.794Z,3.80
2019-05-07T06:10:19.599Z,3.90
2019-05-07T06:12:57.084Z,3.45
2019-05-07T06:15:47.274Z,5.12
2019-05-07T06:18:32.825Z,5.72
2019-05-07T06:21:12.564Z,6.30
2019-05-07T06:23:52.893Z,2.37
2019-05-07T06:26:22.784Z,2.33
2019-05-07T06:28:51.991Z,3.47
2019-05-07T06:31:22.203Z,5.40
2019-05-07T06:33:55.176Z,6.97
2019-05-07T06:36:29.493Z,7.37
2019-05-07T06:39:01.946Z,9.03
2019-05-07T06:41:48.981Z,5.30
2019-05-07T06:44:19.668Z,7.28
2019-05-07T06:46:52.626Z,7.78
2019-05-07T06:51:52.831Z,9.30
2019-05-07T06:54:22.680Z,5.20
2019-05-07T06:56:52.369Z,4.65
2019-05-07T06:59:26.471Z,2.50
2019-05-07T07:02:14.510Z,2.58
2019-05-07T07:04:49.238Z,5.00
2019-05-07T07:07:29.812Z,2.22
2019-05-07T07:09:54.471Z,3.92
2019-05-07T07:12:26.125Z,2.25
2019-05-07T07:14:59.438Z,3.22
2019-05-07T07:17:28.558Z,1.80
2019-05-07T07:19:57.630Z,1.80
2019-05-07T07:22:27.849Z,2.67
2019-05-07T07:24:57.969Z,5.92
2019-05-07T07:27:28.499Z,2.60
2019-05-07T07:29:59.043Z,2.25
2019-05-07T07:32:32.829Z,1.90
2019-05-07T07:35:05.039Z,4.30
2019-05-07T07:37:43.013Z,4.03
2019-05-07T07:40:22.749Z,2.00
2019-05-07T07:42:52.100Z,3.30
2019-05-07T07:45:25.236Z,1.77
2019-05-07T07:47:56.694Z,2.00
2019-05-07T07:50:28.245Z,2.02
2019-05-07T07:52:58.176Z,2.00
2019-05-07T07:55:28.591Z,2.08
2019-05-07T07:58:06.377Z,2.00
2019-05-07T08:00:48.889Z,2.45
2019-05-07T08:03:19.010Z,1.90
2019-05-07T08:05:51.855Z,1.57
2019-05-07T08:08:21.943Z,2.02
2019-05-07T08:10:52.095Z,2.25
2019-05-07T08:13:22.919Z,2.20
2019-05-07T08:15:53.846Z,2.55
2019-05-07T08:18:28.305Z,4.87
2019-05-07T08:20:57.415Z,3.33
2019-05-07T08:23:28.967Z,2.90
2019-05-07T08:26:02.975Z,2.62
2019-05-07T08:28:32.108Z,2.47
2019-05-07T08:31:02.965Z,2.15
2019-05-07T08:33:36.649Z,2.30
2019-05-07T08:36:11.994Z,2.20
2019-05-07T08:38:55.605Z,2.15
2019-05-07T08:41:28.613Z,1.85
2019-05-07T08:44:12.370Z,2.02
2019-05-07T08:46:46.103Z,1.92
2019-05-07T08:49:17.883Z,2.10
2019-05-07T08:51:51.971Z,2.35
2019-05-07T08:54:22.683Z,2.45
2019-05-07T08:56:54.679Z,1.60
2019-05-07T08:59:27.260Z,1.60
2019-05-07T09:01:56.288Z,1.50
2019-05-07T09:04:25.344Z,1.30
2019-05-07T09:06:58.434Z,1.22
2019-05-07T09:09:28.453Z,1.75
2019-05-07T09:11:59.457Z,1.57
2019-05-07T09:14:35.349Z,1.70
2019-05-07T09:17:06.100Z,2.58
2019-05-07T09:19:48.356Z,1.95
2019-05-07T09:22:13.735Z,2.85
2019-05-07T09:27:22.291Z,1.67
2019-05-07T09:29:58.992Z,2.15
2019-05-07T09:32:44.472Z,2.08
2019-05-07T09:35:35.585Z,1.50
2019-05-07T09:38:08.999Z,1.65
2019-05-07T09:43:25.908Z,1.60
2019-05-07T09:45:55.001Z,1.47
2019-05-07T09:48:27.885Z,1.80
2019-05-07T09:50:59.445Z,1.80
2019-05-07T09:53:29.558Z,2.10
2019-05-07T09:55:58.754Z,1.90
2019-05-07T09:58:38.819Z,1.50
2019-05-07T10:01:06.472Z,1.90
2019-05-07T10:03:35.662Z,1.92
2019-05-07T10:06:07.067Z,1.87
2019-05-07T10:08:38.781Z,1.90
2019-05-07T10:11:09.500Z,1.37
2019-05-07T10:13:41.916Z,1.30
2019-05-07T10:16:20.465Z,1.22
2019-05-07T10:18:51.917Z,1.50
2019-05-07T10:21:24.147Z,1.90
2019-05-07T10:23:53.202Z,1.87
2019-05-07T10:26:22.664Z,2.02
2019-05-07T10:28:52.870Z,2.20
2019-05-07T10:31:22.372Z,1.45
2019-05-07T10:33:52.407Z,1.40
2019-05-07T10:36:24.213Z,1.80
2019-05-07T10:38:54.265Z,1.77
2019-05-07T10:41:23.623Z,2.10
2019-05-07T10:43:57.575Z,1.42
2019-05-07T10:46:31.898Z,1.80
2019-05-07T10:49:14.873Z,3.00
2019-05-07T10:51:48.061Z,1.63
2019-05-07T10:54:19.462Z,1.72
2019-05-07T10:56:52.327Z,1.50
2019-05-07T10:59:22.363Z,2.02
2019-05-07T11:02:05.947Z,1.75
2019-05-07T11:04:42.202Z,2.25
2019-05-07T11:07:11.314Z,2.25
2019-05-07T11:09:42.010Z,1.32
2019-05-07T11:12:13.800Z,1.50
2019-05-07T11:14:44.678Z,2.00
2019-05-07T11:17:23.665Z,5.83
2019-05-07T11:19:52.373Z,1.62
2019-05-07T11:22:22.122Z,2.02
2019-05-07T11:24:52.233Z,1.70
2019-05-07T11:27:22.514Z,1.27
2019-05-07T11:29:53.746Z,1.45
2019-05-07T11:32:26.005Z,1.55
2019-05-07T11:34:58.382Z,1.90
2019-05-07T11:37:27.471Z,4.10
2019-05-07T11:40:03.207Z,1.10
2019-05-07T11:42:51.978Z,1.92
2019-05-07T11:45:24.964Z,1.20
2019-05-07T11:47:54.063Z,2.15
2019-05-07T11:50:30.234Z,2.00
2019-05-07T11:53:04.140Z,1.37
2019-05-07T11:55:33.229Z,1.20
2019-05-07T11:58:02.498Z,1.22
2019-05-07T12:00:38.289Z,1.27
2019-05-07T12:03:09.942Z,1.15
2019-05-07T12:05:42.134Z,1.27
2019-05-07T12:08:13.051Z,1.10
2019-05-07T12:10:44.098Z,1.20
2019-05-07T12:13:15.738Z,1.30
2019-05-07T12:15:44.823Z,1.30
2019-05-07T12:18:15.791Z,1.40
2019-05-07T12:20:44.861Z,1.32
2019-05-07T12:23:16.411Z,1.15
2019-05-07T12:25:47.148Z,1.22
2019-05-07T12:28:16.234Z,1.30
2019-05-07T12:31:01.591Z,1.20
2019-05-07T12:33:38.512Z,1.40
2019-05-07T12:36:12.458Z,1.32
2019-05-07T12:38:42.002Z,2.05
2019-05-07T12:41:28.944Z,1.20
2019-05-07T12:43:59.548Z,1.27
2019-05-07T12:46:29.056Z,1.62
2019-05-07T12:48:58.349Z,1.20
2019-05-07T12:51:37.141Z,1.15
2019-05-07T12:54:07.770Z,0.95
2019-05-07T12:56:39.360Z,1.25
2019-05-07T12:59:12.908Z,1.22
2019-05-07T13:01:46.969Z,1.42
2019-05-07T13:04:29.836Z,1.30
2019-05-07T13:07:03.176Z,1.40
2019-05-07T13:09:32.560Z,1.00
2019-05-07T13:12:05.557Z,1.27
2019-05-07T13:14:34.660Z,1.80
2019-05-07T13:17:08.683Z,1.47
2019-05-07T13:19:52.530Z,1.30
2019-05-07T13:22:25.599Z,1.37
2019-05-07T13:24:57.187Z,1.60
2019-05-07T13:27:27.271Z,1.05
2019-05-07T13:29:56.675Z,1.62
2019-05-07T13:32:31.995Z,1.57
2019-05-07T13:35:02.668Z,1.40
2019-05-07T13:37:36.386Z,1.07
2019-05-07T13:42:52.230Z,1.22
2019-05-07T13:45:22.825Z,1.72
2019-05-07T13:47:54.565Z,1.20
2019-05-07T13:50:24.663Z,2.40
2019-05-07T13:52:57.749Z,1.35
2019-05-07T13:55:26.956Z,1.50
2019-05-07T13:58:00.065Z,1.30
2019-05-07T14:00:32.458Z,1.17
2019-05-07T14:03:06.598Z,1.50
2019-05-07T14:05:35.920Z,1.52
2019-05-07T14:08:06.138Z,2.45
2019-05-07T14:10:38.652Z,1.32
2019-05-07T14:13:14.400Z,1.62
2019-05-07T14:15:43.532Z,1.85
2019-05-07T14:18:16.442Z,1.27
2019-05-07T14:20:45.536Z,1.92
2019-05-07T14:23:14.733Z,1.22
2019-05-07T14:25:44.753Z,1.30
2019-05-07T14:28:16.533Z,1.10
2019-05-07T14:30:49.061Z,1.95
2019-05-07T14:33:22.890Z,1.42
2019-05-07T14:38:27.398Z,1.17
2019-05-07T14:40:56.323Z,1.20
2019-05-07T14:43:27.050Z,1.40
2019-05-07T14:45:56.153Z,1.37
2019-05-07T14:48:25.239Z,1.37
2019-05-07T14:50:55.271Z,1.35
2019-05-07T14:53:24.458Z,1.40
2019-05-07T14:55:53.551Z,1.35
2019-05-07T14:58:25.000Z,2.52
2019-05-07T15:00:54.097Z,1.30
2019-05-07T15:03:23.977Z,1.62
2019-05-07T15:05:57.002Z,1.20
2019-05-07T15:08:26.499Z,1.35
2019-05-07T15:10:55.591Z,1.02
2019-05-07T15:13:27.348Z,1.20
2019-05-07T15:15:56.478Z,1.37
2019-05-07T15:18:38.646Z,1.10
2019-05-07T15:21:09.706Z,1.57
2019-05-07T15:23:42.477Z,1.40
2019-05-07T15:26:12.862Z,1.42
2019-05-07T15:28:44.959Z,1.50
2019-05-07T15:31:15.563Z,1.35
2019-05-07T15:33:46.930Z,1.30
2019-05-07T15:36:16.032Z,1.30
2019-05-07T15:38:49.273Z,1.37
2019-05-07T15:41:18.321Z,1.70
2019-05-07T15:43:47.415Z,1.90
2019-05-07T15:46:17.638Z,1.52
2019-05-07T15:48:46.737Z,2.40
2019-05-07T15:51:17.074Z,1.52
2019-05-07T15:53:53.251Z,1.62
2019-05-07T15:56:21.946Z,1.40
2019-05-07T15:58:53.717Z,1.50
2019-05-07T16:01:22.868Z,1.65
2019-05-07T16:03:56.009Z,1.10
2019-05-07T16:06:32.312Z,1.77
2019-05-07T16:09:04.469Z,1.65
2019-05-07T16:11:32.849Z,1.60
2019-05-07T16:14:06.247Z,1.32
2019-05-07T16:16:47.525Z,1.62
2019-05-07T16:19:26.711Z,2.40
2019-05-07T16:21:56.572Z,6.75
2019-05-07T16:24:27.726Z,5.12
2019-05-07T16:26:56.398Z,8.93
2019-05-07T16:29:27.811Z,4.30
2019-05-07T16:31:57.906Z,6.12
2019-05-07T16:34:32.606Z,1.70
2019-05-07T16:37:03.511Z,2.37
2019-05-07T16:39:32.680Z,5.72
2019-05-07T16:42:05.713Z,3.77
2019-05-07T16:44:38.082Z,2.80
2019-05-07T16:47:09.227Z,5.55
2019-05-07T16:49:38.319Z,3.17
2019-05-07T16:52:12.012Z,4.83
2019-05-07T16:54:44.928Z,7.87
2019-05-07T16:57:16.153Z,7.33
2019-05-07T16:59:47.061Z,4.37
2019-05-07T17:02:23.454Z,2.85
2019-05-07T17:05:12.519Z,4.45
2019-05-07T17:07:45.827Z,5.83
2019-05-07T17:10:17.368Z,3.17
2019-05-07T17:12:49.130Z,7.28
2019-05-07T17:15:18.624Z,3.80
2019-05-07T17:17:49.272Z,2.02
2019-05-07T17:20:18.451Z,3.90
2019-05-07T17:22:47.546Z,7.72
2019-05-07T17:25:35.123Z,2.60
2019-05-07T17:28:07.885Z,3.52
2019-05-07T17:30:37.825Z,5.07
2019-05-07T17:33:07.174Z,3.70
2019-05-07T17:35:38.849Z,3.10
2019-05-07T17:38:12.792Z,3.10
2019-05-07T17:40:43.363Z,2.72
2019-05-07T17:43:12.459Z,1.75
2019-05-07T17:45:42.923Z,2.08
2019-05-07T17:48:12.433Z,2.22
2019-05-07T17:50:48.855Z,2.27
2019-05-07T17:53:17.949Z,2.65
2019-05-07T17:55:47.046Z,2.55
2019-05-07T17:58:16.140Z,2.65
2019-05-07T18:00:52.763Z,3.42
2019-05-07T18:03:39.398Z,7.25
2019-05-07T18:06:09.815Z,4.17
2019-05-07T18:08:44.577Z,2.77
2019-05-07T18:11:23.669Z,2.95
2019-05-07T18:13:59.028Z,3.02
2019-05-07T18:16:29.880Z,2.58
2019-05-07T18:19:01.984Z,2.67
2019-05-07T18:21:32.599Z,2.65
2019-05-07T18:24:13.053Z,2.12
2019-05-07T18:26:35.131Z,2.62
2019-05-07T18:29:04.259Z,4.20
2019-05-07T18:31:51.477Z,4.87
2019-05-07T18:34:27.845Z,6.37
2019-05-07T18:36:58.067Z,5.85
2019-05-07T18:39:27.261Z,4.85
2019-05-07T18:41:56.356Z,3.27
2019-05-07T18:44:29.172Z,4.08
2019-05-07T18:47:02.396Z,3.70
2019-05-07T18:49:31.731Z,4.90
2019-05-07T18:52:05.280Z,3.27
2019-05-07T18:54:36.345Z,2.60
2019-05-07T18:57:05.465Z,2.40
2019-05-07T18:59:36.100Z,2.50
2019-05-07T19:02:06.531Z,2.33
2019-05-07T19:04:35.617Z,2.12
2019-05-07T19:07:04.826Z,2.70
2019-05-07T19:09:34.135Z,2.45
2019-05-07T19:12:03.720Z,4.20
2019-05-07T19:14:36.604Z,4.35
2019-05-07T19:17:05.918Z,5.80
2019-05-07T19:19:35.102Z,5.70
2019-05-07T19:22:09.329Z,4.45
2019-05-07T19:24:47.139Z,5.22
2019-05-07T19:27:13.261Z,2.80
2019-05-07T19:29:45.082Z,3.05
2019-05-07T19:32:15.754Z,3.37
2019-05-07T19:34:45.549Z,2.22
2019-05-07T19:37:15.571Z,3.60
2019-05-07T19:39:45.799Z,4.15
2019-05-07T19:42:15.032Z,4.05
2019-05-07T19:44:45.493Z,3.77
2019-05-07T19:47:14.701Z,6.72
2019-05-07T19:49:44.023Z,4.60
2019-05-07T19:52:16.910Z,3.90
2019-05-07T19:54:58.826Z,3.87
2019-05-07T19:57:29.932Z,3.83
2019-05-07T20:00:00.267Z,3.58
2019-05-07T20:02:34.952Z,6.60
2019-05-07T20:05:04.272Z,10.00
2019-05-07T20:07:33.469Z,12.80
2019-05-07T20:10:16.609Z,12.95
2019-05-07T20:12:45.353Z,11.33
2019-05-07T20:15:14.326Z,11.75
2019-05-07T20:17:44.073Z,8.80
2019-05-07T20:20:12.990Z,4.75
2019-05-07T20:22:41.672Z,4.33
2019-05-07T20:25:18.975Z,3.00
2019-05-07T20:27:44.117Z,5.12
2019-05-07T20:30:16.606Z,6.35
2019-05-07T20:32:47.250Z,4.67
2019-05-07T20:35:16.982Z,2.83
2019-05-07T20:37:45.658Z,2.75
2019-05-07T20:40:14.350Z,2.02
2019-05-07T20:42:43.222Z,2.70
2019-05-07T20:45:12.325Z,2.30
2019-05-07T20:47:42.249Z,2.58
2019-05-07T20:50:13.700Z,2.10
2019-05-07T20:52:42.385Z,2.12
2019-05-07T20:55:31.515Z,2.30
2019-05-07T20:57:59.827Z,2.52
2019-05-07T21:00:29.234Z,2.90
2019-05-07T21:03:16.530Z,2.70
2019-05-07T21:05:45.315Z,2.35
2019-05-07T21:08:14.019Z,3.15
2019-05-07T21:10:44.678Z,3.85
2019-05-07T21:13:27.576Z,3.92
2019-05-07T21:15:43.749Z,4.50
2019-05-07T21:18:12.529Z,3.67
2019-05-07T21:20:42.049Z,3.08
2019-05-07T21:23:12.210Z,2.60
2019-05-07T21:25:43.445Z,3.00
2019-05-07T21:28:12.186Z,4.17
2019-05-07T21:30:42.674Z,3.92
2019-05-07T21:33:12.019Z,4.12
2019-05-07T21:35:42.761Z,3.15
2019-05-07T21:38:12.697Z,3.52
2019-05-07T21:40:42.890Z,3.58
2019-05-07T21:43:14.003Z,3.83
2019-05-07T21:45:43.358Z,3.25
2019-05-07T21:48:13.710Z,3.37
2019-05-07T21:50:43.884Z,3.62
2019-05-07T21:53:15.217Z,4.33
2019-05-07T21:55:58.882Z,5.30
2019-05-07T21:58:29.223Z,4.45
2019-05-07T22:01:02.615Z,3.98
2019-05-07T22:03:34.741Z,3.00
2019-05-07T22:06:02.622Z,2.87
2019-05-07T22:08:35.039Z,2.35
2019-05-07T22:11:04.661Z,2.90
2019-05-07T22:13:35.866Z,3.20
2019-05-07T22:16:04.012Z,4.10
2019-05-07T22:18:34.005Z,3.67
2019-05-07T22:21:03.840Z,3.67
2019-05-07T22:23:32.540Z,4.03
2019-05-07T22:26:18.586Z,4.28
2019-05-07T22:28:32.544Z,4.22
2019-05-07T22:31:15.669Z,4.58
2019-05-07T22:33:46.145Z,5.67
2019-05-07T22:36:15.090Z,4.00
2019-05-07T22:38:43.977Z,3.85
2019-05-07T22:41:15.149Z,4.12
2019-05-07T22:43:44.933Z,4.35
2019-05-07T22:46:13.865Z,4.30
2019-05-07T22:48:42.541Z,4.03
2019-05-07T22:51:12.179Z,4.17
2019-05-07T22:53:46.076Z,4.30
2019-05-07T22:56:15.040Z,4.28
2019-05-07T22:58:57.217Z,6.00
2019-05-07T23:01:25.931Z,5.67
2019-05-07T23:03:56.734Z,4.28
2019-05-07T23:06:25.030Z,4.37
2019-05-07T23:08:53.628Z,3.55
2019-05-07T23:11:22.863Z,3.12
2019-05-07T23:13:54.851Z,2.90
2019-05-07T23:16:29.377Z,3.10
2019-05-07T23:18:58.090Z,3.80
2019-05-07T23:21:26.851Z,3.77
2019-05-07T23:23:55.636Z,2.87
2019-05-07T23:26:47.001Z,3.30
2019-05-07T23:29:04.374Z,5.83
2019-05-07T23:31:33.161Z,7.28
2019-05-07T23:34:02.033Z,9.65
2019-05-07T23:36:30.941Z,8.45
2019-05-07T23:38:59.832Z,8.95
2019-05-07T23:41:30.014Z,8.58
2019-05-07T23:44:13.585Z,8.38
2019-05-07T23:46:44.696Z,7.17
2019-05-07T23:49:12.650Z,6.83
2019-05-07T23:51:42.481Z,6.50
2019-05-07T23:54:12.208Z,5.15
2019-05-07T23:56:42.817Z,4.40
2019-05-07T23:59:14.502Z,4.08
